This is the latest recevied weather packets stored in our database for station/object KD5BIG-13. If no packets are shown the sender has not sent any weather packets the latest 1 day(s).
| Time | Temp. | Humidity | Pressure | Rain* | Wind** | Luminosity | Snow |
|---|---|---|---|---|---|---|---|
| 1778024165 | 25.56° C | 79% | 1013.2 hPa | 0 mm | 1.79 m/s, 222° | 37 W/m² | - |
| 1778023862 | 25.56° C | 79% | 1013.4 hPa | 0 mm | 0 m/s | 54 W/m² | - |
| 1778023560 | 25.56° C | 79% | 1013.3 hPa | 0 mm | 0.45 m/s, 179° | 88 W/m² | - |
| 1778023258 | 25.56° C | 78% | 1013.3 hPa | 0 mm | 0 m/s | 53 W/m² | - |
| 1778022954 | 25.56° C | 78% | 1013.3 hPa | 0 mm | 0.89 m/s, 281° | 47 W/m² | - |
| 1778022653 | 25.56° C | 78% | 1013.3 hPa | 0 mm | 1.34 m/s, 192° | 73 W/m² | - |
| 1778022350 | 25.56° C | 78% | 1013.3 hPa | 0 mm | 0.89 m/s, 240° | 56 W/m² | - |
| 1778022046 | 25.56° C | 77% | 1013.1 hPa | 0 mm | 0.89 m/s, 201° | 103 W/m² | - |
| 1778021743 | 25.56° C | 77% | 1013.3 hPa | 0 mm | 0.45 m/s, 241° | 91 W/m² | - |
| 1778021439 | 25.56° C | 77% | 1012.9 hPa | 0 mm | 0.89 m/s, 194° | 127 W/m² | - |
| 1778021136 | 25.56° C | 78% | 1013.1 hPa | 0 mm | 2.24 m/s, 202° | 99 W/m² | - |
| 1778020834 | 25.56° C | 77% | 1013.4 hPa | 0 mm | 0 m/s | 116 W/m² | - |
| 1778020531 | 25.56° C | 77% | 1013.3 hPa | 0 mm | 0 m/s | 168 W/m² | - |
| 1778020227 | 25.56° C | 77% | 1013.2 hPa | 0 mm | 0 m/s | 137 W/m² | - |
| 1778019923 | 25.56° C | 78% | 1013.3 hPa | 0 mm | 0 m/s | 166 W/m² | - |
| 1778019619 | 25.56° C | 77% | 1013.3 hPa | 0 mm | 0 m/s | 167 W/m² | - |
| 1778019317 | 25.56° C | 76% | 1013.4 hPa | 0 mm | 0 m/s | 186 W/m² | - |
| 1778019013 | 25.56° C | 77% | 1013.3 hPa | 0 mm | 0.89 m/s, 182° | 154 W/m² | - |
| 1778018710 | 25.56° C | 76% | 1013.5 hPa | 0 mm | 0.45 m/s, 244° | 63 W/m² | - |
| 1778018408 | 25.56° C | 77% | 1013.7 hPa | 0 mm | 0.89 m/s, 178° | 94 W/m² | - |
| 1778018106 | 25.56° C | 77% | 1013.6 hPa | 0 mm | 0 m/s | 155 W/m² | - |
| 1778017804 | 25.56° C | 76% | 1013.6 hPa | 0 mm | 1.34 m/s, 196° | 221 W/m² | - |
| 1778017502 | 25.56° C | 76% | 1013.8 hPa | 0 mm | 0.89 m/s, 182° | 227 W/m² | - |
| 1778017198 | 25.56° C | 77% | 1013.8 hPa | 0 mm | 0 m/s | 151 W/m² | - |
| 1778016896 | 25.56° C | 77% | 1013.8 hPa | 0 mm | 1.79 m/s, 221° | 151 W/m² | - |
* Rain latest hour (hover to see other rain measurements)
** Current wind speed in m/s (hover to see current wind gust speed)